sensor_id;sensor_type;location;lat;lon;timestamp;temperature;humidity
3300;DHT22;1662;49.310;8.134;2023-12-29T00:00:26;9.80;99.90
3300;DHT22;1662;49.310;8.134;2023-12-29T00:02:51;9.80;99.90
3300;DHT22;1662;49.310;8.134;2023-12-29T00:05:19;9.80;99.90
3300;DHT22;1662;49.310;8.134;2023-12-29T00:07:45;9.80;99.90
3300;DHT22;1662;49.310;8.134;2023-12-29T00:10:10;9.80;99.90
3300;DHT22;1662;49.310;8.134;2023-12-29T00:12:36;9.90;99.90
3300;DHT22;1662;49.310;8.134;2023-12-29T00:15:02;10.00;99.90
3300;DHT22;1662;49.310;8.134;2023-12-29T00:17:28;9.90;99.90
3300;DHT22;1662;49.310;8.134;2023-12-29T00:19:56;9.90;99.90
3300;DHT22;1662;49.310;8.134;2023-12-29T00:22:24;10.00;99.90
3300;DHT22;1662;49.310;8.134;2023-12-29T00:24:52;10.00;99.90
3300;DHT22;1662;49.310;8.134;2023-12-29T00:27:18;10.00;99.90
3300;DHT22;1662;49.310;8.134;2023-12-29T00:29:43;10.00;99.90
3300;DHT22;1662;49.310;8.134;2023-12-29T00:32:09;10.00;99.90
3300;DHT22;1662;49.310;8.134;2023-12-29T00:34:35;10.10;99.90
3300;DHT22;1662;49.310;8.134;2023-12-29T00:37:02;10.00;99.90
3300;DHT22;1662;49.310;8.134;2023-12-29T00:39:28;10.00;99.90
3300;DHT22;1662;49.310;8.134;2023-12-29T00:41:56;10.10;99.90
3300;DHT22;1662;49.310;8.134;2023-12-29T00:44:23;10.10;99.90
3300;DHT22;1662;49.310;8.134;2023-12-29T00:46:49;10.10;99.90
3300;DHT22;1662;49.310;8.134;2023-12-29T00:49:15;10.00;99.90
3300;DHT22;1662;49.310;8.134;2023-12-29T00:51:41;10.00;99.90
3300;DHT22;1662;49.310;8.134;2023-12-29T00:54:07;10.00;99.90
3300;DHT22;1662;49.310;8.134;2023-12-29T00:56:32;10.00;99.90
3300;DHT22;1662;49.310;8.134;2023-12-29T00:58:58;10.10;99.90
3300;DHT22;1662;49.310;8.134;2023-12-29T01:01:24;10.10;99.90
3300;DHT22;1662;49.310;8.134;2023-12-29T01:03:49;10.10;99.90
3300;DHT22;1662;49.310;8.134;2023-12-29T01:06:15;10.10;99.90
3300;DHT22;1662;49.310;8.134;2023-12-29T01:08:41;10.10;99.90
3300;DHT22;1662;49.310;8.134;2023-12-29T01:11:09;10.00;99.90
3300;DHT22;1662;49.310;8.134;2023-12-29T01:13:35;10.10;99.90
3300;DHT22;1662;49.310;8.134;2023-12-29T01:16:01;10.10;99.90
3300;DHT22;1662;49.310;8.134;2023-12-29T01:18:26;10.10;99.90
3300;DHT22;1662;49.310;8.134;2023-12-29T01:20:52;10.10;99.90
3300;DHT22;1662;49.310;8.134;2023-12-29T01:23:17;10.10;99.90
3300;DHT22;1662;49.310;8.134;2023-12-29T01:25:43;9.80;99.90
3300;DHT22;1662;49.310;8.134;2023-12-29T01:28:09;10.00;99.90
3300;DHT22;1662;49.310;8.134;2023-12-29T01:30:34;10.00;99.90
3300;DHT22;1662;49.310;8.134;2023-12-29T01:33:00;9.90;99.90
3300;DHT22;1662;49.310;8.134;2023-12-29T01:35:25;10.00;99.90
3300;DHT22;1662;49.310;8.134;2023-12-29T01:37:51;10.00;99.90
3300;DHT22;1662;49.310;8.134;2023-12-29T01:40:17;10.00;99.90
3300;DHT22;1662;49.310;8.134;2023-12-29T01:42:45;10.00;99.90
3300;DHT22;1662;49.310;8.134;2023-12-29T01:45:21;10.00;99.90
3300;DHT22;1662;49.310;8.134;2023-12-29T01:47:48;10.10;99.90
3300;DHT22;1662;49.310;8.134;2023-12-29T01:50:24;10.00;99.90
3300;DHT22;1662;49.310;8.134;2023-12-29T01:52:51;10.10;99.90
3300;DHT22;1662;49.310;8.134;2023-12-29T01:55:21;10.10;99.90
3300;DHT22;1662;49.310;8.134;2023-12-29T01:57:47;10.10;99.90
3300;DHT22;1662;49.310;8.134;2023-12-29T02:00:13;10.00;99.90
3300;DHT22;1662;49.310;8.134;2023-12-29T02:02:41;10.00;99.90
3300;DHT22;1662;49.310;8.134;2023-12-29T02:05:07;9.90;99.90
3300;DHT22;1662;49.310;8.134;2023-12-29T02:07:33;10.00;99.90
3300;DHT22;1662;49.310;8.134;2023-12-29T02:10:00;9.90;99.90
3300;DHT22;1662;49.310;8.134;2023-12-29T02:12:26;9.90;99.90
3300;DHT22;1662;49.310;8.134;2023-12-29T02:14:52;9.90;99.90
3300;DHT22;1662;49.310;8.134;2023-12-29T02:17:38;9.80;99.90
3300;DHT22;1662;49.310;8.134;2023-12-29T02:20:05;9.80;99.90
3300;DHT22;1662;49.310;8.134;2023-12-29T02:22:32;9.90;99.90
3300;DHT22;1662;49.310;8.134;2023-12-29T02:24:58;9.90;99.90
3300;DHT22;1662;49.310;8.134;2023-12-29T02:30:35;9.80;99.90
3300;DHT22;1662;49.310;8.134;2023-12-29T02:33:05;9.80;99.90
3300;DHT22;1662;49.310;8.134;2023-12-29T02:35:39;9.80;99.90
3300;DHT22;1662;49.310;8.134;2023-12-29T02:38:06;10.00;99.90
3300;DHT22;1662;49.310;8.134;2023-12-29T02:40:32;9.90;99.90
3300;DHT22;1662;49.310;8.134;2023-12-29T02:42:58;9.80;99.90
3300;DHT22;1662;49.310;8.134;2023-12-29T02:45:23;9.80;99.90
3300;DHT22;1662;49.310;8.134;2023-12-29T02:47:49;9.90;99.90
3300;DHT22;1662;49.310;8.134;2023-12-29T02:50:15;9.80;99.90
3300;DHT22;1662;49.310;8.134;2023-12-29T02:52:41;9.80;99.90
3300;DHT22;1662;49.310;8.134;2023-12-29T02:55:07;9.80;99.90
3300;DHT22;1662;49.310;8.134;2023-12-29T02:57:32;9.80;99.90
3300;DHT22;1662;49.310;8.134;2023-12-29T02:59:58;9.80;99.90
3300;DHT22;1662;49.310;8.134;2023-12-29T03:02:24;9.80;99.90
3300;DHT22;1662;49.310;8.134;2023-12-29T03:04:50;9.80;99.90
3300;DHT22;1662;49.310;8.134;2023-12-29T03:07:15;9.80;99.90
3300;DHT22;1662;49.310;8.134;2023-12-29T03:09:41;9.80;99.90
3300;DHT22;1662;49.310;8.134;2023-12-29T03:12:07;9.80;99.90
3300;DHT22;1662;49.310;8.134;2023-12-29T03:14:32;9.80;99.90
3300;DHT22;1662;49.310;8.134;2023-12-29T03:16:58;9.80;99.90
3300;DHT22;1662;49.310;8.134;2023-12-29T03:19:24;9.80;99.90
3300;DHT22;1662;49.310;8.134;2023-12-29T03:21:50;9.80;99.90
3300;DHT22;1662;49.310;8.134;2023-12-29T03:24:18;9.90;99.90
3300;DHT22;1662;49.310;8.134;2023-12-29T03:26:43;9.70;99.90
3300;DHT22;1662;49.310;8.134;2023-12-29T03:29:10;9.80;99.90
3300;DHT22;1662;49.310;8.134;2023-12-29T03:31:36;9.80;99.90
3300;DHT22;1662;49.310;8.134;2023-12-29T03:34:02;9.80;99.90
3300;DHT22;1662;49.310;8.134;2023-12-29T03:36:27;9.80;99.90
3300;DHT22;1662;49.310;8.134;2023-12-29T03:38:53;9.80;99.90
3300;DHT22;1662;49.310;8.134;2023-12-29T03:41:18;9.80;99.90
3300;DHT22;1662;49.310;8.134;2023-12-29T03:43:44;9.80;99.90
3300;DHT22;1662;49.310;8.134;2023-12-29T03:46:20;9.70;99.90
3300;DHT22;1662;49.310;8.134;2023-12-29T03:48:46;9.70;99.90
3300;DHT22;1662;49.310;8.134;2023-12-29T03:51:12;9.80;99.90
3300;DHT22;1662;49.310;8.134;2023-12-29T03:53:38;9.70;99.90
3300;DHT22;1662;49.310;8.134;2023-12-29T03:56:14;9.70;99.90
3300;DHT22;1662;49.310;8.134;2023-12-29T03:58:40;9.70;99.90
3300;DHT22;1662;49.310;8.134;2023-12-29T04:01:10;9.70;99.90
3300;DHT22;1662;49.310;8.134;2023-12-29T04:03:36;9.80;99.90
3300;DHT22;1662;49.310;8.134;2023-12-29T04:06:02;9.70;99.90
3300;DHT22;1662;49.310;8.134;2023-12-29T04:08:28;9.80;99.90
3300;DHT22;1662;49.310;8.134;2023-12-29T04:10:53;10.00;99.90
3300;DHT22;1662;49.310;8.134;2023-12-29T04:13:19;9.70;99.90
3300;DHT22;1662;49.310;8.134;2023-12-29T04:15:44;9.70;99.90
3300;DHT22;1662;49.310;8.134;2023-12-29T04:18:10;9.70;99.90
3300;DHT22;1662;49.310;8.134;2023-12-29T04:20:38;9.80;99.90
3300;DHT22;1662;49.310;8.134;2023-12-29T04:23:05;9.80;99.90
3300;DHT22;1662;49.310;8.134;2023-12-29T04:25:31;9.80;99.90
3300;DHT22;1662;49.310;8.134;2023-12-29T04:27:57;9.80;99.90
3300;DHT22;1662;49.310;8.134;2023-12-29T04:30:22;9.90;99.90
3300;DHT22;1662;49.310;8.134;2023-12-29T04:32:48;9.90;99.90
3300;DHT22;1662;49.310;8.134;2023-12-29T04:35:13;9.90;99.90
3300;DHT22;1662;49.310;8.134;2023-12-29T04:37:44;9.90;99.90
3300;DHT22;1662;49.310;8.134;2023-12-29T04:40:10;9.80;99.90
3300;DHT22;1662;49.310;8.134;2023-12-29T04:42:36;9.80;99.90
3300;DHT22;1662;49.310;8.134;2023-12-29T04:45:01;9.90;99.90
3300;DHT22;1662;49.310;8.134;2023-12-29T04:47:27;9.80;99.90
3300;DHT22;1662;49.310;8.134;2023-12-29T04:49:53;9.80;99.90
3300;DHT22;1662;49.310;8.134;2023-12-29T04:52:18;9.80;99.90
3300;DHT22;1662;49.310;8.134;2023-12-29T04:54:44;9.80;99.90
3300;DHT22;1662;49.310;8.134;2023-12-29T04:57:09;9.90;99.90
3300;DHT22;1662;49.310;8.134;2023-12-29T04:59:35;9.90;99.90
3300;DHT22;1662;49.310;8.134;2023-12-29T05:02:00;9.90;99.90
3300;DHT22;1662;49.310;8.134;2023-12-29T05:04:26;9.90;99.90
3300;DHT22;1662;49.310;8.134;2023-12-29T05:06:54;9.90;99.90
3300;DHT22;1662;49.310;8.134;2023-12-29T05:09:19;9.90;99.90
3300;DHT22;1662;49.310;8.134;2023-12-29T05:11:45;9.90;99.90
3300;DHT22;1662;49.310;8.134;2023-12-29T05:14:11;9.90;99.90
3300;DHT22;1662;49.310;8.134;2023-12-29T05:16:36;9.90;99.90
3300;DHT22;1662;49.310;8.134;2023-12-29T05:19:02;9.80;99.90
3300;DHT22;1662;49.310;8.134;2023-12-29T05:21:28;9.80;99.90
3300;DHT22;1662;49.310;8.134;2023-12-29T05:23:53;9.80;99.90
3300;DHT22;1662;49.310;8.134;2023-12-29T05:26:19;9.90;99.90
3300;DHT22;1662;49.310;8.134;2023-12-29T05:28:45;9.90;99.90
3300;DHT22;1662;49.310;8.134;2023-12-29T05:31:10;9.90;99.90
3300;DHT22;1662;49.310;8.134;2023-12-29T05:33:36;9.90;99.90
3300;DHT22;1662;49.310;8.134;2023-12-29T05:36:09;9.90;99.90
3300;DHT22;1662;49.310;8.134;2023-12-29T05:38:37;9.80;99.90
3300;DHT22;1662;49.310;8.134;2023-12-29T05:41:03;9.70;99.90
3300;DHT22;1662;49.310;8.134;2023-12-29T05:43:31;9.70;99.90
3300;DHT22;1662;49.310;8.134;2023-12-29T05:45:57;9.70;99.90
3300;DHT22;1662;49.310;8.134;2023-12-29T05:48:23;9.70;99.90
3300;DHT22;1662;49.310;8.134;2023-12-29T05:50:52;9.70;99.90
3300;DHT22;1662;49.310;8.134;2023-12-29T05:53:18;9.90;99.90
3300;DHT22;1662;49.310;8.134;2023-12-29T05:55:46;9.80;99.90
3300;DHT22;1662;49.310;8.134;2023-12-29T05:58:12;9.80;99.90
3300;DHT22;1662;49.310;8.134;2023-12-29T06:00:38;9.80;99.90
3300;DHT22;1662;49.310;8.134;2023-12-29T06:03:05;9.80;99.90
3300;DHT22;1662;49.310;8.134;2023-12-29T06:05:32;9.80;99.90
3300;DHT22;1662;49.310;8.134;2023-12-29T06:07:57;9.70;99.90
3300;DHT22;1662;49.310;8.134;2023-12-29T06:10:23;9.80;99.90
3300;DHT22;1662;49.310;8.134;2023-12-29T06:12:49;9.70;99.90
3300;DHT22;1662;49.310;8.134;2023-12-29T06:15:15;9.80;99.90
3300;DHT22;1662;49.310;8.134;2023-12-29T06:17:40;9.80;99.90
3300;DHT22;1662;49.310;8.134;2023-12-29T06:20:07;9.80;99.90
3300;DHT22;1662;49.310;8.134;2023-12-29T06:22:39;9.90;99.90
3300;DHT22;1662;49.310;8.134;2023-12-29T06:25:09;9.80;99.90
3300;DHT22;1662;49.310;8.134;2023-12-29T06:27:35;9.80;99.90
3300;DHT22;1662;49.310;8.134;2023-12-29T06:30:05;9.80;99.90
3300;DHT22;1662;49.310;8.134;2023-12-29T06:32:31;9.80;99.90
3300;DHT22;1662;49.310;8.134;2023-12-29T06:34:57;9.80;99.90
3300;DHT22;1662;49.310;8.134;2023-12-29T06:37:22;9.90;99.90
3300;DHT22;1662;49.310;8.134;2023-12-29T06:39:48;9.80;99.90
3300;DHT22;1662;49.310;8.134;2023-12-29T06:42:13;9.80;99.90
3300;DHT22;1662;49.310;8.134;2023-12-29T06:44:39;9.80;99.90
3300;DHT22;1662;49.310;8.134;2023-12-29T06:47:05;9.80;99.90
3300;DHT22;1662;49.310;8.134;2023-12-29T06:49:33;9.80;99.90
3300;DHT22;1662;49.310;8.134;2023-12-29T06:51:59;9.80;99.90
3300;DHT22;1662;49.310;8.134;2023-12-29T06:54:25;9.70;99.90
3300;DHT22;1662;49.310;8.134;2023-12-29T06:56:50;9.80;99.90
3300;DHT22;1662;49.310;8.134;2023-12-29T06:59:16;9.80;99.90
3300;DHT22;1662;49.310;8.134;2023-12-29T07:01:44;9.80;99.90
3300;DHT22;1662;49.310;8.134;2023-12-29T07:04:09;9.90;99.90
3300;DHT22;1662;49.310;8.134;2023-12-29T07:06:36;9.80;99.90
3300;DHT22;1662;49.310;8.134;2023-12-29T07:09:04;9.80;99.90
3300;DHT22;1662;49.310;8.134;2023-12-29T07:11:31;9.80;99.90
3300;DHT22;1662;49.310;8.134;2023-12-29T07:13:56;9.80;99.90
3300;DHT22;1662;49.310;8.134;2023-12-29T07:16:22;9.80;99.90
3300;DHT22;1662;49.310;8.134;2023-12-29T07:18:48;9.90;99.90
3300;DHT22;1662;49.310;8.134;2023-12-29T07:21:14;9.90;99.90
3300;DHT22;1662;49.310;8.134;2023-12-29T07:23:40;9.90;99.90
3300;DHT22;1662;49.310;8.134;2023-12-29T07:26:07;9.90;99.90
3300;DHT22;1662;49.310;8.134;2023-12-29T07:28:32;9.80;99.90
3300;DHT22;1662;49.310;8.134;2023-12-29T07:30:59;9.80;99.90
3300;DHT22;1662;49.310;8.134;2023-12-29T07:33:24;9.80;99.90
3300;DHT22;1662;49.310;8.134;2023-12-29T07:35:50;9.80;99.90
3300;DHT22;1662;49.310;8.134;2023-12-29T07:38:16;9.80;99.90
3300;DHT22;1662;49.310;8.134;2023-12-29T07:40:42;9.90;99.90
3300;DHT22;1662;49.310;8.134;2023-12-29T07:43:08;10.00;99.90
3300;DHT22;1662;49.310;8.134;2023-12-29T07:45:33;10.00;99.90
3300;DHT22;1662;49.310;8.134;2023-12-29T07:47:59;9.90;99.90
3300;DHT22;1662;49.310;8.134;2023-12-29T07:50:25;9.90;99.90
3300;DHT22;1662;49.310;8.134;2023-12-29T07:52:51;10.00;99.90
3300;DHT22;1662;49.310;8.134;2023-12-29T07:55:16;10.00;99.90
3300;DHT22;1662;49.310;8.134;2023-12-29T07:57:42;10.00;99.90
3300;DHT22;1662;49.310;8.134;2023-12-29T08:00:12;10.00;99.90
3300;DHT22;1662;49.310;8.134;2023-12-29T08:02:39;10.00;99.90
3300;DHT22;1662;49.310;8.134;2023-12-29T08:05:05;10.00;99.90
3300;DHT22;1662;49.310;8.134;2023-12-29T08:07:34;10.00;99.90
3300;DHT22;1662;49.310;8.134;2023-12-29T08:10:01;10.00;99.90
3300;DHT22;1662;49.310;8.134;2023-12-29T08:12:29;10.00;99.90
3300;DHT22;1662;49.310;8.134;2023-12-29T08:14:55;10.00;99.90
3300;DHT22;1662;49.310;8.134;2023-12-29T08:17:22;10.10;99.90
3300;DHT22;1662;49.310;8.134;2023-12-29T08:19:47;10.10;99.90
3300;DHT22;1662;49.310;8.134;2023-12-29T08:22:13;10.10;99.90
3300;DHT22;1662;49.310;8.134;2023-12-29T08:24:40;10.20;99.90
3300;DHT22;1662;49.310;8.134;2023-12-29T08:27:08;10.20;99.90
3300;DHT22;1662;49.310;8.134;2023-12-29T08:29:34;10.20;99.90
3300;DHT22;1662;49.310;8.134;2023-12-29T08:32:00;10.20;99.90
3300;DHT22;1662;49.310;8.134;2023-12-29T08:34:27;10.30;99.90
3300;DHT22;1662;49.310;8.134;2023-12-29T08:36:52;10.30;99.90
3300;DHT22;1662;49.310;8.134;2023-12-29T08:39:18;10.30;99.90
3300;DHT22;1662;49.310;8.134;2023-12-29T08:41:44;10.30;99.90
3300;DHT22;1662;49.310;8.134;2023-12-29T08:44:10;10.40;99.90
3300;DHT22;1662;49.310;8.134;2023-12-29T08:46:35;10.40;99.90
3300;DHT22;1662;49.310;8.134;2023-12-29T08:49:01;10.50;99.90
3300;DHT22;1662;49.310;8.134;2023-12-29T08:51:27;10.50;99.90
3300;DHT22;1662;49.310;8.134;2023-12-29T08:53:52;10.50;99.90
3300;DHT22;1662;49.310;8.134;2023-12-29T08:56:18;10.60;99.90
3300;DHT22;1662;49.310;8.134;2023-12-29T08:58:43;10.60;99.90
3300;DHT22;1662;49.310;8.134;2023-12-29T09:01:09;10.60;99.90
3300;DHT22;1662;49.310;8.134;2023-12-29T09:03:35;10.70;99.90
3300;DHT22;1662;49.310;8.134;2023-12-29T09:06:00;10.70;99.90
3300;DHT22;1662;49.310;8.134;2023-12-29T09:08:27;10.70;99.90
3300;DHT22;1662;49.310;8.134;2023-12-29T09:10:55;10.70;99.90
3300;DHT22;1662;49.310;8.134;2023-12-29T09:13:21;10.70;99.90
3300;DHT22;1662;49.310;8.134;2023-12-29T09:15:48;10.60;99.90
3300;DHT22;1662;49.310;8.134;2023-12-29T09:18:14;10.70;99.90
3300;DHT22;1662;49.310;8.134;2023-12-29T09:20:39;10.80;99.90
3300;DHT22;1662;49.310;8.134;2023-12-29T09:23:05;10.70;99.90
3300;DHT22;1662;49.310;8.134;2023-12-29T09:25:31;10.80;99.90
3300;DHT22;1662;49.310;8.134;2023-12-29T09:27:56;10.90;99.90
3300;DHT22;1662;49.310;8.134;2023-12-29T09:30:22;10.80;99.90
3300;DHT22;1662;49.310;8.134;2023-12-29T09:32:48;11.00;99.90
3300;DHT22;1662;49.310;8.134;2023-12-29T09:35:13;10.90;99.90
3300;DHT22;1662;49.310;8.134;2023-12-29T09:37:39;10.90;99.90
3300;DHT22;1662;49.310;8.134;2023-12-29T09:40:05;10.90;99.90
3300;DHT22;1662;49.310;8.134;2023-12-29T09:42:31;11.00;99.90
3300;DHT22;1662;49.310;8.134;2023-12-29T09:44:59;11.00;99.90
3300;DHT22;1662;49.310;8.134;2023-12-29T09:47:31;11.10;99.90
3300;DHT22;1662;49.310;8.134;2023-12-29T09:49:58;11.10;99.90
3300;DHT22;1662;49.310;8.134;2023-12-29T09:52:24;11.20;99.90
3300;DHT22;1662;49.310;8.134;2023-12-29T09:54:51;11.20;99.90
3300;DHT22;1662;49.310;8.134;2023-12-29T09:57:18;11.20;99.90
3300;DHT22;1662;49.310;8.134;2023-12-29T09:59:43;11.20;99.90
3300;DHT22;1662;49.310;8.134;2023-12-29T10:02:14;11.20;99.90
3300;DHT22;1662;49.310;8.134;2023-12-29T10:04:43;11.20;99.90
3300;DHT22;1662;49.310;8.134;2023-12-29T10:07:13;11.10;99.90
3300;DHT22;1662;49.310;8.134;2023-12-29T10:09:41;11.20;99.90
3300;DHT22;1662;49.310;8.134;2023-12-29T10:12:09;11.10;99.90
3300;DHT22;1662;49.310;8.134;2023-12-29T10:14:37;11.10;99.90
3300;DHT22;1662;49.310;8.134;2023-12-29T10:17:09;11.20;99.90
3300;DHT22;1662;49.310;8.134;2023-12-29T10:19:40;11.20;99.90
3300;DHT22;1662;49.310;8.134;2023-12-29T10:22:18;11.10;99.90
3300;DHT22;1662;49.310;8.134;2023-12-29T10:24:46;11.10;99.90
3300;DHT22;1662;49.310;8.134;2023-12-29T10:27:12;11.10;99.90
3300;DHT22;1662;49.310;8.134;2023-12-29T10:29:38;11.20;99.90
3300;DHT22;1662;49.310;8.134;2023-12-29T10:32:04;11.20;99.90
3300;DHT22;1662;49.310;8.134;2023-12-29T10:34:30;11.30;99.90
3300;DHT22;1662;49.310;8.134;2023-12-29T10:37:00;11.30;99.90
3300;DHT22;1662;49.310;8.134;2023-12-29T10:39:28;11.40;99.90
3300;DHT22;1662;49.310;8.134;2023-12-29T10:44:37;11.30;99.90
3300;DHT22;1662;49.310;8.134;2023-12-29T10:47:09;11.40;99.90
3300;DHT22;1662;49.310;8.134;2023-12-29T10:49:35;11.40;99.90
3300;DHT22;1662;49.310;8.134;2023-12-29T10:52:16;11.50;99.90
3300;DHT22;1662;49.310;8.134;2023-12-29T10:54:44;11.60;99.90
3300;DHT22;1662;49.310;8.134;2023-12-29T10:57:11;11.70;99.90
3300;DHT22;1662;49.310;8.134;2023-12-29T10:59:38;11.70;99.90
3300;DHT22;1662;49.310;8.134;2023-12-29T11:02:03;11.80;99.90
3300;DHT22;1662;49.310;8.134;2023-12-29T11:04:29;11.90;99.90
3300;DHT22;1662;49.310;8.134;2023-12-29T11:06:55;12.00;99.90
3300;DHT22;1662;49.310;8.134;2023-12-29T11:09:32;12.10;99.90
3300;DHT22;1662;49.310;8.134;2023-12-29T11:12:03;12.00;99.90
3300;DHT22;1662;49.310;8.134;2023-12-29T11:14:30;12.00;99.90
3300;DHT22;1662;49.310;8.134;2023-12-29T11:16:57;12.10;99.90
3300;DHT22;1662;49.310;8.134;2023-12-29T11:19:24;12.10;99.90
3300;DHT22;1662;49.310;8.134;2023-12-29T11:21:54;12.20;99.90
3300;DHT22;1662;49.310;8.134;2023-12-29T11:24:21;12.10;99.90
3300;DHT22;1662;49.310;8.134;2023-12-29T11:26:49;12.20;99.90
3300;DHT22;1662;49.310;8.134;2023-12-29T11:29:15;12.40;99.90
3300;DHT22;1662;49.310;8.134;2023-12-29T11:31:42;12.50;99.90
3300;DHT22;1662;49.310;8.134;2023-12-29T11:34:23;12.50;99.90
3300;DHT22;1662;49.310;8.134;2023-12-29T11:36:55;12.60;99.90
3300;DHT22;1662;49.310;8.134;2023-12-29T11:39:46;12.60;99.90
3300;DHT22;1662;49.310;8.134;2023-12-29T11:42:14;12.70;99.90
3300;DHT22;1662;49.310;8.134;2023-12-29T11:44:43;12.90;99.90
3300;DHT22;1662;49.310;8.134;2023-12-29T11:47:34;13.00;99.90
3300;DHT22;1662;49.310;8.134;2023-12-29T11:50:01;12.90;99.90
3300;DHT22;1662;49.310;8.134;2023-12-29T11:52:37;13.00;99.90
3300;DHT22;1662;49.310;8.134;2023-12-29T11:55:11;12.90;99.90
3300;DHT22;1662;49.310;8.134;2023-12-29T11:57:37;12.80;99.90
3300;DHT22;1662;49.310;8.134;2023-12-29T12:00:04;12.80;99.90
3300;DHT22;1662;49.310;8.134;2023-12-29T12:02:32;12.70;99.90
3300;DHT22;1662;49.310;8.134;2023-12-29T12:04:58;12.60;99.90
3300;DHT22;1662;49.310;8.134;2023-12-29T12:12:58;12.30;99.90
3300;DHT22;1662;49.310;8.134;2023-12-29T12:17:57;12.20;99.90
3300;DHT22;1662;49.310;8.134;2023-12-29T12:20:23;12.20;99.90
3300;DHT22;1662;49.310;8.134;2023-12-29T12:22:53;12.10;99.90
3300;DHT22;1662;49.310;8.134;2023-12-29T12:25:22;12.20;99.90
3300;DHT22;1662;49.310;8.134;2023-12-29T12:27:47;12.10;99.90
3300;DHT22;1662;49.310;8.134;2023-12-29T12:30:18;12.10;99.90
3300;DHT22;1662;49.310;8.134;2023-12-29T12:32:44;12.10;99.90
3300;DHT22;1662;49.310;8.134;2023-12-29T12:35:16;12.00;99.90
3300;DHT22;1662;49.310;8.134;2023-12-29T12:37:42;11.90;99.90
3300;DHT22;1662;49.310;8.134;2023-12-29T12:40:08;11.90;99.90
3300;DHT22;1662;49.310;8.134;2023-12-29T12:42:38;11.90;99.90
3300;DHT22;1662;49.310;8.134;2023-12-29T12:45:20;12.00;99.90
3300;DHT22;1662;49.310;8.134;2023-12-29T12:47:52;12.00;99.90
3300;DHT22;1662;49.310;8.134;2023-12-29T12:50:20;12.00;99.90
3300;DHT22;1662;49.310;8.134;2023-12-29T12:52:46;12.00;99.90
3300;DHT22;1662;49.310;8.134;2023-12-29T12:55:12;11.90;99.90
3300;DHT22;1662;49.310;8.134;2023-12-29T12:57:39;11.90;99.90
3300;DHT22;1662;49.310;8.134;2023-12-29T13:00:06;11.80;99.90
3300;DHT22;1662;49.310;8.134;2023-12-29T13:02:33;11.80;99.90
3300;DHT22;1662;49.310;8.134;2023-12-29T13:04:59;11.80;99.90
3300;DHT22;1662;49.310;8.134;2023-12-29T13:07:25;11.70;99.90
3300;DHT22;1662;49.310;8.134;2023-12-29T13:09:52;11.70;99.90
3300;DHT22;1662;49.310;8.134;2023-12-29T13:12:18;11.60;99.90
3300;DHT22;1662;49.310;8.134;2023-12-29T13:14:44;11.60;99.90
3300;DHT22;1662;49.310;8.134;2023-12-29T13:17:13;11.60;99.90
3300;DHT22;1662;49.310;8.134;2023-12-29T13:19:40;11.60;99.90
3300;DHT22;1662;49.310;8.134;2023-12-29T13:22:10;11.60;99.90
3300;DHT22;1662;49.310;8.134;2023-12-29T13:24:46;11.60;99.90
3300;DHT22;1662;49.310;8.134;2023-12-29T13:27:12;11.50;99.90
3300;DHT22;1662;49.310;8.134;2023-12-29T13:29:38;11.40;99.90
3300;DHT22;1662;49.310;8.134;2023-12-29T13:32:16;11.40;99.90
3300;DHT22;1662;49.310;8.134;2023-12-29T13:34:53;11.40;99.90
3300;DHT22;1662;49.310;8.134;2023-12-29T13:40:13;11.20;99.90
3300;DHT22;1662;49.310;8.134;2023-12-29T13:42:41;11.10;99.90
3300;DHT22;1662;49.310;8.134;2023-12-29T13:45:10;11.10;99.90
3300;DHT22;1662;49.310;8.134;2023-12-29T13:47:37;11.10;99.90
3300;DHT22;1662;49.310;8.134;2023-12-29T13:50:04;11.20;99.90
3300;DHT22;1662;49.310;8.134;2023-12-29T13:52:30;11.20;99.90
3300;DHT22;1662;49.310;8.134;2023-12-29T13:54:55;11.10;99.90
3300;DHT22;1662;49.310;8.134;2023-12-29T13:57:32;11.10;99.90
3300;DHT22;1662;49.310;8.134;2023-12-29T13:59:57;11.20;99.90
3300;DHT22;1662;49.310;8.134;2023-12-29T14:02:36;11.10;99.90
3300;DHT22;1662;49.310;8.134;2023-12-29T14:05:14;11.10;99.90
3300;DHT22;1662;49.310;8.134;2023-12-29T14:07:59;11.10;99.90
3300;DHT22;1662;49.310;8.134;2023-12-29T14:10:32;11.00;99.90
3300;DHT22;1662;49.310;8.134;2023-12-29T14:13:13;11.10;99.90
3300;DHT22;1662;49.310;8.134;2023-12-29T14:15:43;11.00;99.90
3300;DHT22;1662;49.310;8.134;2023-12-29T14:18:38;11.10;99.90
3300;DHT22;1662;49.310;8.134;2023-12-29T14:21:30;11.00;99.90
3300;DHT22;1662;49.310;8.134;2023-12-29T14:26:41;11.00;99.90
3300;DHT22;1662;49.310;8.134;2023-12-29T14:29:11;11.00;99.90
3300;DHT22;1662;49.310;8.134;2023-12-29T14:31:44;11.00;99.90
3300;DHT22;1662;49.310;8.134;2023-12-29T14:34:11;10.90;99.90
3300;DHT22;1662;49.310;8.134;2023-12-29T14:36:38;10.90;99.90
3300;DHT22;1662;49.310;8.134;2023-12-29T14:39:06;10.90;99.90
3300;DHT22;1662;49.310;8.134;2023-12-29T14:41:35;10.90;99.90
3300;DHT22;1662;49.310;8.134;2023-12-29T14:44:02;10.90;99.90
3300;DHT22;1662;49.310;8.134;2023-12-29T14:46:27;10.80;99.90
3300;DHT22;1662;49.310;8.134;2023-12-29T14:48:54;10.80;99.90
3300;DHT22;1662;49.310;8.134;2023-12-29T14:51:21;10.80;99.90
3300;DHT22;1662;49.310;8.134;2023-12-29T14:53:48;10.80;99.90
3300;DHT22;1662;49.310;8.134;2023-12-29T14:56:14;10.90;99.90
3300;DHT22;1662;49.310;8.134;2023-12-29T14:58:41;10.80;99.90
3300;DHT22;1662;49.310;8.134;2023-12-29T15:01:07;10.80;99.90
3300;DHT22;1662;49.310;8.134;2023-12-29T15:03:33;10.80;99.90
3300;DHT22;1662;49.310;8.134;2023-12-29T15:05:59;10.80;99.90
3300;DHT22;1662;49.310;8.134;2023-12-29T15:08:26;10.70;99.90
3300;DHT22;1662;49.310;8.134;2023-12-29T15:10:53;10.70;99.90
3300;DHT22;1662;49.310;8.134;2023-12-29T15:13:19;10.70;99.90
3300;DHT22;1662;49.310;8.134;2023-12-29T15:15:44;10.60;99.90
3300;DHT22;1662;49.310;8.134;2023-12-29T15:18:10;10.50;99.90
3300;DHT22;1662;49.310;8.134;2023-12-29T15:20:35;10.50;99.90
3300;DHT22;1662;49.310;8.134;2023-12-29T15:23:01;10.50;99.90
3300;DHT22;1662;49.310;8.134;2023-12-29T15:25:28;10.60;99.90
3300;DHT22;1662;49.310;8.134;2023-12-29T15:27:54;10.60;99.90
3300;DHT22;1662;49.310;8.134;2023-12-29T15:30:20;10.60;99.90
3300;DHT22;1662;49.310;8.134;2023-12-29T15:32:46;10.50;99.90
3300;DHT22;1662;49.310;8.134;2023-12-29T15:35:11;10.40;99.90
3300;DHT22;1662;49.310;8.134;2023-12-29T15:37:39;10.50;99.90
3300;DHT22;1662;49.310;8.134;2023-12-29T15:40:05;10.50;99.90
3300;DHT22;1662;49.310;8.134;2023-12-29T15:42:31;10.40;99.90
3300;DHT22;1662;49.310;8.134;2023-12-29T15:44:56;10.40;99.90
3300;DHT22;1662;49.310;8.134;2023-12-29T15:47:22;10.40;99.90
3300;DHT22;1662;49.310;8.134;2023-12-29T15:49:48;10.50;99.90
3300;DHT22;1662;49.310;8.134;2023-12-29T15:52:13;10.50;99.90
3300;DHT22;1662;49.310;8.134;2023-12-29T15:54:39;10.40;99.90
3300;DHT22;1662;49.310;8.134;2023-12-29T15:57:05;10.40;99.90
3300;DHT22;1662;49.310;8.134;2023-12-29T15:59:34;10.40;99.90
3300;DHT22;1662;49.310;8.134;2023-12-29T16:02:00;10.30;99.90
3300;DHT22;1662;49.310;8.134;2023-12-29T16:04:26;10.30;99.90
3300;DHT22;1662;49.310;8.134;2023-12-29T16:06:54;10.40;99.90
3300;DHT22;1662;49.310;8.134;2023-12-29T16:09:20;10.40;99.90
3300;DHT22;1662;49.310;8.134;2023-12-29T16:11:45;10.30;99.90
3300;DHT22;1662;49.310;8.134;2023-12-29T16:14:11;10.30;99.90
3300;DHT22;1662;49.310;8.134;2023-12-29T16:16:40;10.30;99.90
3300;DHT22;1662;49.310;8.134;2023-12-29T16:19:06;10.30;99.90
3300;DHT22;1662;49.310;8.134;2023-12-29T16:21:35;10.30;99.90
3300;DHT22;1662;49.310;8.134;2023-12-29T16:24:01;10.30;99.90
3300;DHT22;1662;49.310;8.134;2023-12-29T16:26:28;10.30;99.90